Time;durP1;ratioP1;P1;durP2;ratioP2;P2;SDS_P1;SDS_P2;PMS_P1;PMS_P2;Temp;Humidity;BMP_temperature;BMP_pressure;BME280_temperature;BME280_humidity;BME280_pressure;Samples;Min_cycle;Max_cycle;Signal;HPM_P1;HPM_P2
2023/08/23 00:00:09;;;;;;;9.80;6.25;;;;;;;13.78;93.21;98511.22;5115138;28;20051;-57
2023/08/23 00:02:40;;;;;;;8.25;5.43;;;;;;;13.78;93.75;98516.53;5115240;28;20043;-56
2023/08/23 00:05:07;;;;;;;9.38;5.72;;;;;;;13.74;94.09;98507.53;5115119;28;20253;-55
2023/08/23 00:07:32;;;;;;;6.70;5.50;;;;;;;13.77;93.89;98515.75;5114122;28;20043;-57
2023/08/23 00:09:58;;;;;;;9.90;6.07;;;;;;;13.76;93.84;98511.47;5115106;28;20076;-56
2023/08/23 00:12:24;;;;;;;9.55;6.65;;;;;;;13.74;94.14;98502.19;5113581;28;20044;-57
2023/08/23 00:14:49;;;;;;;8.48;6.28;;;;;;;13.72;94.19;98507.00;5115189;28;20220;-56
2023/08/23 00:17:15;;;;;;;7.68;6.43;;;;;;;13.73;94.46;98512.03;5115458;28;20175;-57
2023/08/23 00:19:41;;;;;;;8.25;6.60;;;;;;;13.70;94.46;98514.47;5113990;28;20377;-56
2023/08/23 00:22:06;;;;;;;9.23;6.70;;;;;;;13.69;94.51;98512.88;5115118;28;20055;-55
2023/08/23 00:24:32;;;;;;;11.50;7.85;;;;;;;13.66;94.39;98513.44;5115102;28;20519;-54
2023/08/23 00:26:58;;;;;;;8.48;6.10;;;;;;;13.66;94.59;98506.25;5115266;28;20047;-56
2023/08/23 00:29:23;;;;;;;8.93;7.07;;;;;;;13.66;94.52;98513.44;5114431;28;20038;-54
2023/08/23 00:31:49;;;;;;;9.10;7.15;;;;;;;13.64;94.92;98508.38;5114357;28;20087;-56
2023/08/23 00:34:14;;;;;;;12.88;6.85;;;;;;;13.61;95.08;98501.75;5113353;28;20044;-57
2023/08/23 00:36:40;;;;;;;11.45;7.00;;;;;;;13.61;95.25;98503.63;5096354;28;20046;-55
2023/08/23 00:39:06;;;;;;;9.70;6.88;;;;;;;13.62;95.51;98505.22;5096180;28;20151;-56
2023/08/23 00:41:31;;;;;;;14.77;6.80;;;;;;;13.62;96.56;98506.03;5114684;28;20058;-56
2023/08/23 00:43:57;;;;;;;9.65;6.85;;;;;;;13.63;96.72;98498.81;5112803;28;20127;-57
2023/08/23 00:46:23;;;;;;;9.00;6.03;;;;;;;13.63;96.98;98499.63;5113211;28;20600;-57
2023/08/23 00:48:50;;;;;;;9.00;6.38;;;;;;;13.64;96.87;98501.19;5114305;28;20046;-56
2023/08/23 00:51:17;;;;;;;8.55;6.18;;;;;;;13.63;97.17;98488.16;5096085;28;20043;-56
2023/08/23 00:53:43;;;;;;;9.27;7.18;;;;;;;13.63;96.57;98494.28;5079034;28;20035;-56
2023/08/23 00:56:11;;;;;;;12.13;7.07;;;;;;;13.61;96.29;98491.09;5113116;28;20044;-56
2023/08/23 00:58:37;;;;;;;11.18;7.22;;;;;;;13.57;96.19;98492.75;5112864;28;20097;-57
2023/08/23 01:01:03;;;;;;;11.77;8.93;;;;;;;13.56;96.65;98495.66;5114223;28;20081;-58
2023/08/23 01:03:29;;;;;;;15.02;9.20;;;;;;;13.57;97.96;98498.06;5113720;28;20075;-56
2023/08/23 01:06:01;;;;;;;9.43;7.60;;;;;;;13.58;98.13;98498.84;5112819;28;20496;-57
2023/08/23 01:09:04;;;;;;;12.07;8.18;;;;;;;13.59;97.98;98495.13;5113910;28;20418;-56
2023/08/23 01:11:51;;;;;;;8.70;7.03;;;;;;;13.59;98.39;98497.81;5113933;28;20140;-57
2023/08/23 01:14:33;;;;;;;10.63;7.45;;;;;;;13.60;98.58;98499.38;5114053;27;20491;-57
2023/08/23 01:16:59;;;;;;;10.27;7.55;;;;;;;13.60;98.54;98494.06;5112651;28;20043;-56
2023/08/23 01:19:43;;;;;;;7.95;6.85;;;;;;;13.64;99.13;98487.88;5112805;28;20080;-55
2023/08/23 01:22:21;;;;;;;9.15;7.13;;;;;;;13.66;98.45;98492.16;5095548;28;20039;-56
2023/08/23 01:24:48;;;;;;;9.40;7.13;;;;;;;13.67;98.58;98485.72;5113910;28;20047;-56
2023/08/23 01:27:16;;;;;;;10.48;7.05;;;;;;;13.64;98.13;98492.41;5113997;28;20047;-57
2023/08/23 01:29:45;;;;;;;12.90;8.55;;;;;;;13.54;96.16;98485.31;5112294;28;20043;-58
2023/08/23 01:32:52;;;;;;;18.95;9.38;;;;;;;13.45;95.91;98478.19;5111863;28;20051;-56
2023/08/23 01:35:21;;;;;;;14.43;9.05;;;;;;;13.32;95.72;98480.41;5109041;28;20036;-57
2023/08/23 01:37:51;;;;;;;11.57;8.15;;;;;;;13.26;96.75;98478.84;5112336;28;20094;-57
2023/08/23 01:40:17;;;;;;;17.08;9.40;;;;;;;13.24;96.69;98482.84;5112069;28;20051;-57
2023/08/23 01:42:43;;;;;;;12.38;9.65;;;;;;;13.17;96.77;98475.16;5113757;28;20188;-55
2023/08/23 01:45:09;;;;;;;11.98;9.25;;;;;;;13.15;96.64;98482.66;5111937;28;20040;-56
2023/08/23 01:47:35;;;;;;;18.83;10.07;;;;;;;13.11;96.66;98486.91;5113627;28;20050;-56
2023/08/23 01:50:02;;;;;;;18.45;10.20;;;;;;;13.04;96.41;98489.09;5113416;28;20124;-55
2023/08/23 01:52:29;;;;;;;21.60;9.50;;;;;;;13.01;96.24;98493.09;5111935;28;20427;-56
2023/08/23 01:54:55;;;;;;;21.55;10.25;;;;;;;12.96;96.42;98495.78;5112025;28;20046;-57
2023/08/23 01:57:20;;;;;;;16.38;8.85;;;;;;;12.96;98.29;98495.78;5094901;28;20133;-56
2023/08/23 01:59:47;;;;;;;14.10;10.00;;;;;;;13.01;99.47;98486.97;5111691;28;20054;-56
2023/08/23 02:02:12;;;;;;;11.50;9.10;;;;;;;12.99;99.04;98492.56;5113303;28;20053;-57
2023/08/23 02:04:38;;;;;;;13.88;10.13;;;;;;;12.99;99.01;98491.78;5112849;28;20040;-56
2023/08/23 02:07:04;;;;;;;15.15;10.10;;;;;;;12.93;98.96;98494.44;5113194;28;20044;-58
2023/08/23 02:09:31;;;;;;;12.38;9.18;;;;;;;12.88;98.92;98486.53;5111394;28;20047;-56
2023/08/23 02:11:57;;;;;;;16.15;9.65;;;;;;;12.86;99.28;98488.66;5077694;28;20577;-56
2023/08/23 02:14:23;;;;;;;14.43;8.73;;;;;;;12.84;100.00;98480.13;5111693;28;20035;-56
2023/08/23 02:16:48;;;;;;;12.90;8.98;;;;;;;12.86;100.00;98496.63;5111694;28;20484;-56
2023/08/23 02:19:14;;;;;;;11.85;8.93;;;;;;;12.89;100.00;98489.97;5094586;28;20042;-55
2023/08/23 02:21:40;;;;;;;12.65;8.68;;;;;;;12.91;100.00;98498.44;5078071;28;20134;-57
2023/08/23 02:24:07;;;;;;;10.43;8.57;;;;;;;12.95;100.00;98492.31;5094602;28;20134;-57
2023/08/23 02:26:35;;;;;;;10.48;8.05;;;;;;;12.99;100.00;98497.09;5111635;28;20175;-56
2023/08/23 02:29:01;;;;;;;11.88;8.73;;;;;;;12.99;100.00;98491.78;5111377;28;20505;-56
2023/08/23 02:31:27;;;;;;;10.88;8.32;;;;;;;13.04;100.00;98491.75;5111118;28;20068;-55
2023/08/23 02:33:54;;;;;;;13.45;8.93;;;;;;;13.09;100.00;98492.53;5094532;28;20055;-55
2023/08/23 02:36:19;;;;;;;10.25;8.02;;;;;;;13.14;100.00;98489.00;5112810;28;20046;-54
2023/08/23 02:38:45;;;;;;;9.23;7.88;;;;;;;13.18;100.00;98492.72;5112490;28;20091;-55
2023/08/23 02:41:11;;;;;;;9.68;7.18;;;;;;;13.22;100.00;98483.13;5112652;28;20043;-56
2023/08/23 02:43:38;;;;;;;10.52;7.80;;;;;;;13.28;100.00;98489.22;5112669;28;20043;-56
2023/08/23 02:46:03;;;;;;;10.63;7.55;;;;;;;13.33;100.00;98489.19;5112370;28;20042;-58
2023/08/23 02:48:29;;;;;;;10.38;8.13;;;;;;;13.37;100.00;98487.56;5111168;28;20416;-57
2023/08/23 02:50:55;;;;;;;10.35;8.15;;;;;;;13.46;100.00;98491.22;5093965;28;20051;-55
2023/08/23 02:53:21;;;;;;;10.95;7.55;;;;;;;13.52;99.35;98482.13;5111321;28;20492;-57
2023/08/23 02:55:46;;;;;;;16.60;8.07;;;;;;;13.63;98.08;98480.19;5112306;28;20075;-57
2023/08/23 02:58:12;;;;;;;8.60;6.88;;;;;;;13.77;97.60;98475.81;5093938;28;20394;-56
2023/08/23 03:00:39;;;;;;;11.40;7.32;;;;;;;13.89;95.94;98485.28;5112317;28;20040;-55
2023/08/23 03:03:05;;;;;;;12.07;7.63;;;;;;;13.95;94.59;98482.28;5110828;28;20462;-57
2023/08/23 03:05:31;;;;;;;13.77;7.75;;;;;;;14.03;94.51;98479.03;5110839;28;20504;-56
2023/08/23 03:07:56;;;;;;;11.10;7.25;;;;;;;14.15;94.55;98483.97;5112302;28;20047;-57
2023/08/23 03:10:22;;;;;;;8.23;7.00;;;;;;;14.37;93.57;98485.31;5112009;28;20066;-56
2023/08/23 03:12:47;;;;;;;11.90;7.82;;;;;;;14.66;92.01;98475.41;5112355;28;20061;-58
2023/08/23 03:15:13;;;;;;;24.85;8.27;;;;;;;14.90;89.05;98478.03;5112096;28;20071;-56
2023/08/23 03:17:40;;;;;;;18.67;8.45;;;;;;;15.13;87.65;98486.25;5110827;28;20043;-56
2023/08/23 03:20:06;;;;;;;18.15;9.73;;;;;;;15.37;86.56;98489.63;5112030;28;20146;-57
2023/08/23 03:22:33;;;;;;;10.98;7.45;;;;;;;15.60;84.97;98484.47;5110689;28;20058;-57
2023/08/23 03:24:58;;;;;;;11.35;6.57;;;;;;;15.65;84.53;98482.50;5112287;28;20118;-58
2023/08/23 03:27:25;;;;;;;11.23;7.30;;;;;;;15.63;84.26;98478.53;5110557;28;20048;-56
2023/08/23 03:29:51;;;;;;;10.35;7.07;;;;;;;15.64;84.57;98477.44;5110797;28;20156;-56
2023/08/23 03:32:17;;;;;;;10.38;6.90;;;;;;;15.67;84.41;98477.69;5110056;28;20059;-56
2023/08/23 03:34:43;;;;;;;12.85;7.63;;;;;;;15.71;84.20;98479.78;5110408;28;20047;-56
2023/08/23 03:37:09;;;;;;;10.25;7.28;;;;;;;15.74;83.70;98482.66;5110274;28;20040;-55
2023/08/23 03:39:37;;;;;;;9.38;7.28;;;;;;;15.79;83.84;98479.09;5110290;28;20075;-56
2023/08/23 03:42:04;;;;;;;10.95;7.03;;;;;;;15.80;83.65;98478.03;5110255;28;20044;-56
2023/08/23 03:44:30;;;;;;;8.75;6.80;;;;;;;15.88;83.59;98470.13;5093278;28;20032;-55
2023/08/23 03:46:56;;;;;;;9.00;7.85;;;;;;;15.97;83.71;98477.44;5090117;28;20044;-56
2023/08/23 03:49:22;;;;;;;12.75;7.43;;;;;;;16.01;83.56;98481.13;5106920;28;20057;-57
2023/08/23 03:51:48;;;;;;;9.70;7.07;;;;;;;16.13;83.42;98482.22;5089987;28;20052;-57
2023/08/23 03:54:15;;;;;;;15.50;7.50;;;;;;;16.26;82.23;98487.88;5091359;28;20512;-56
2023/08/23 03:56:41;;;;;;;9.82;7.30;;;;;;;16.41;81.90;98484.91;5089941;28;20461;-58
2023/08/23 03:59:06;;;;;;;17.88;7.63;;;;;;;16.56;81.61;98483.84;5090409;28;20036;-57
2023/08/23 04:01:32;;;;;;;10.63;7.10;;;;;;;16.81;79.91;98479.88;5091269;28;20048;-57
2023/08/23 04:03:58;;;;;;;8.27;6.72;;;;;;;17.01;79.37;98484.00;5091201;28;20432;-55
2023/08/23 04:06:23;;;;;;;9.68;6.80;;;;;;;17.15;78.43;98479.41;5089703;28;20044;-57
2023/08/23 04:08:49;;;;;;;9.48;6.68;;;;;;;17.22;78.01;98482.44;5090732;28;20048;-57
2023/08/23 04:11:15;;;;;;;13.88;7.38;;;;;;;17.39;77.23;98483.69;5089625;28;20062;-57
2023/08/23 04:13:40;;;;;;;12.35;7.57;;;;;;;17.47;76.43;98478.38;5089850;28;20042;-55
2023/08/23 04:16:06;;;;;;;8.50;7.38;;;;;;;17.45;76.73;98475.19;5089838;28;20419;-56
2023/08/23 04:18:31;;;;;;;10.18;7.55;;;;;;;17.40;77.02;98472.63;5089521;28;20040;-56
2023/08/23 04:21:01;;;;;;;11.10;7.85;;;;;;;17.46;76.77;98476.00;5089440;28;20489;-55
2023/08/23 04:23:27;;;;;;;17.08;7.65;;;;;;;17.69;76.20;98482.94;5089609;28;20098;-56
2023/08/23 04:25:54;;;;;;;9.93;7.30;;;;;;;18.06;74.88;98477.47;5089519;28;20131;-55
2023/08/23 04:28:20;;;;;;;8.15;6.68;;;;;;;18.28;73.50;98473.94;5089531;28;20126;-58
2023/08/23 04:30:45;;;;;;;6.88;6.13;;;;;;;18.39;72.84;98478.72;5090648;28;20040;-57
2023/08/23 04:33:11;;;;;;;9.85;6.82;;;;;;;18.49;72.52;98469.59;5090558;28;20047;-56
2023/08/23 04:35:37;;;;;;;8.07;6.35;;;;;;;18.57;72.17;98470.72;5089346;28;20386;-56
2023/08/23 04:38:04;;;;;;;8.45;6.75;;;;;;;18.61;72.19;98475.13;5089320;28;20040;-56
2023/08/23 04:40:30;;;;;;;8.60;6.80;;;;;;;18.70;71.94;98469.00;5075901;28;20040;-56
2023/08/23 04:42:55;;;;;;;9.02;6.57;;;;;;;18.82;71.70;98470.03;5093216;28;20047;-59
2023/08/23 04:45:22;;;;;;;7.00;6.30;;;;;;;19.04;71.04;98473.66;5092992;28;20391;-58
2023/08/23 04:47:51;;;;;;;9.20;6.57;;;;;;;19.14;70.46;98470.66;5109601;28;20047;-56
2023/08/23 04:50:17;;;;;;;7.72;6.70;;;;;;;19.12;70.64;98464.81;5096071;28;20040;-55
2023/08/23 04:52:45;;;;;;;8.98;6.93;;;;;;;19.06;69.80;98460.72;5096448;28;20100;-57
2023/08/23 04:55:10;;;;;;;10.88;6.93;;;;;;;18.95;71.04;98464.81;5113491;28;20130;-56
2023/08/23 04:57:37;;;;;;;8.70;6.57;;;;;;;18.86;71.22;98466.72;5114937;28;20036;-56
2023/08/23 05:00:06;;;;;;;9.70;6.13;;;;;;;18.79;71.76;98462.56;5096070;28;20039;-58
2023/08/23 05:02:32;;;;;;;8.70;6.05;;;;;;;18.91;71.83;98459.25;5113038;28;20074;-56
2023/08/23 05:04:58;;;;;;;9.65;6.00;;;;;;;18.93;72.16;98456.28;5112867;28;20071;-56
2023/08/23 05:07:24;;;;;;;6.40;5.45;;;;;;;19.04;71.33;98463.72;5114711;28;20043;-57
2023/08/23 05:09:49;;;;;;;8.05;5.63;;;;;;;19.25;71.06;98461.19;5095932;28;20051;-56
2023/08/23 05:12:15;;;;;;;11.48;5.78;;;;;;;19.43;70.83;98461.16;5095828;28;20055;-54
2023/08/23 05:14:41;;;;;;;9.80;5.40;;;;;;;19.65;70.03;98461.00;5114024;28;20390;-55
2023/08/23 05:17:07;;;;;;;10.52;5.70;;;;;;;19.89;68.57;98465.84;5114363;28;20047;-57
2023/08/23 05:19:33;;;;;;;10.60;5.63;;;;;;;19.99;68.12;98462.00;5112648;28;20127;-57
2023/08/23 05:21:59;;;;;;;12.05;5.82;;;;;;;20.12;67.39;98457.56;5112803;28;20477;-56
2023/08/23 05:24:25;;;;;;;7.75;5.35;;;;;;;20.19;66.92;98464.00;5113862;28;20071;-58
2023/08/23 05:26:50;;;;;;;6.10;4.90;;;;;;;20.29;66.58;98465.53;5112612;28;20046;-57
2023/08/23 05:29:16;;;;;;;7.88;5.05;;;;;;;20.29;66.08;98467.44;5095405;28;20050;-57
2023/08/23 05:31:42;;;;;;;6.88;5.13;;;;;;;20.26;66.15;98465.38;5111340;28;20055;-56
2023/08/23 05:34:09;;;;;;;10.93;4.72;;;;;;;20.11;67.33;98474.78;5111128;28;20068;-56
2023/08/23 05:36:34;;;;;;;7.93;5.13;;;;;;;20.04;67.43;98464.53;5112386;28;20049;-57
2023/08/23 05:39:04;;;;;;;7.07;5.70;;;;;;;20.06;67.44;98465.00;5112171;28;20040;-56
2023/08/23 05:41:30;;;;;;;6.85;5.55;;;;;;;20.04;67.80;98463.75;5112278;28;20059;-55
2023/08/23 05:43:55;;;;;;;8.80;5.97;;;;;;;20.14;67.94;98471.44;5111482;28;20047;-55
2023/08/23 05:46:22;;;;;;;10.50;6.28;;;;;;;20.17;67.79;98476.97;5111936;28;20044;-53
2023/08/23 05:48:51;;;;;;;7.68;5.60;;;;;;;20.24;67.68;98471.09;5111858;28;20101;-53
2023/08/23 05:51:16;;;;;;;6.70;6.10;;;;;;;20.25;67.61;98472.69;5113107;28;20054;-57
2023/08/23 05:53:42;;;;;;;10.20;5.78;;;;;;;20.24;67.41;98470.31;5112975;28;20035;-56
2023/08/23 05:56:08;;;;;;;6.93;5.55;;;;;;;20.12;67.75;98469.09;5111662;28;20044;-56
2023/08/23 05:58:33;;;;;;;7.15;6.15;;;;;;;19.92;68.51;98473.28;5112668;28;20091;-54
2023/08/23 06:00:59;;;;;;;7.75;5.65;;;;;;;19.95;68.22;98477.22;5111502;28;20074;-55
2023/08/23 06:03:25;;;;;;;7.00;5.32;;;;;;;19.86;68.79;98476.47;5093890;28;20550;-55
2023/08/23 06:05:57;;;;;;;8.98;5.43;;;;;;;19.72;69.74;98476.66;5111485;28;20036;-54
2023/08/23 06:08:23;;;;;;;9.60;5.72;;;;;;;19.63;70.36;98483.91;5112950;28;20046;-57
2023/08/23 06:10:49;;;;;;;10.02;6.05;;;;;;;19.52;69.97;98470.00;5111974;28;20043;-58
2023/08/23 06:13:15;;;;;;;7.70;5.10;;;;;;;19.52;70.06;98470.00;5077667;28;20035;-56
2023/08/23 06:15:41;;;;;;;8.30;5.93;;;;;;;19.49;71.01;98473.31;5112735;27;20039;-55
2023/08/23 06:18:07;;;;;;;7.07;5.95;;;;;;;19.43;70.69;98469.22;5112620;28;20605;-53
2023/08/23 06:20:32;;;;;;;7.35;5.50;;;;;;;19.35;70.93;98472.69;5113111;28;20050;-55
2023/08/23 06:22:58;;;;;;;10.23;6.18;;;;;;;19.32;70.90;98471.44;5111205;28;20043;-56
2023/08/23 06:25:24;;;;;;;6.93;5.78;;;;;;;19.33;71.29;98464.19;5112116;28;20417;-55
2023/08/23 06:27:50;;;;;;;5.90;5.22;;;;;;;19.34;71.03;98466.53;5112802;28;20039;-58
2023/08/23 06:30:16;;;;;;;8.80;5.65;;;;;;;19.27;71.31;98466.25;5112364;28;20117;-58
2023/08/23 06:32:48;;;;;;;5.88;5.13;;;;;;;19.19;71.87;98467.03;5108475;27;20505;-55
2023/08/23 06:35:15;;;;;;;5.85;5.03;;;;;;;19.21;72.01;98471.00;5110115;28;20059;-55
2023/08/23 06:37:42;;;;;;;8.50;5.20;;;;;;;19.25;71.71;98466.53;5131223;27;20047;-57
2023/08/23 06:40:11;;;;;;;7.25;5.20;;;;;;;19.34;71.65;98471.91;5132765;27;20047;-56
2023/08/23 06:42:38;;;;;;;5.50;4.33;;;;;;;19.44;70.79;98466.22;5133045;27;20039;-52
2023/08/23 06:45:05;;;;;;;7.50;4.80;;;;;;;19.54;69.45;98472.38;5131454;27;20043;-55
2023/08/23 06:47:31;;;;;;;5.15;4.00;;;;;;;19.54;68.62;98464.31;5118091;27;20508;-54
2023/08/23 06:49:57;;;;;;;7.05;4.32;;;;;;;19.61;68.64;98465.41;5111009;28;20043;-56
2023/08/23 06:52:23;;;;;;;6.05;4.00;;;;;;;19.60;68.13;98461.13;5125113;27;20053;-55
2023/08/23 06:54:49;;;;;;;6.68;3.75;;;;;;;19.59;68.57;98467.63;5132898;27;20038;-57
2023/08/23 06:57:14;;;;;;;6.72;4.32;;;;;;;19.48;68.85;98466.38;5132062;27;20568;-55
2023/08/23 06:59:40;;;;;;;7.75;4.50;;;;;;;19.45;69.28;98467.03;5131836;27;20091;-56
2023/08/23 07:02:06;;;;;;;7.72;3.63;;;;;;;19.43;69.44;98463.84;5131753;27;20060;-54
2023/08/23 07:04:31;;;;;;;9.75;4.22;;;;;;;19.42;69.84;98460.38;5132713;27;20072;-55
2023/08/23 07:06:57;;;;;;;6.47;4.35;;;;;;;19.40;70.08;98467.16;5130779;27;20432;-53
2023/08/23 07:09:23;;;;;;;5.93;3.85;;;;;;;19.37;71.39;98457.06;5132405;27;20035;-57
2023/08/23 07:11:49;;;;;;;6.50;3.92;;;;;;;19.29;72.62;98469.38;5132137;27;20054;-54
2023/08/23 07:14:14;;;;;;;6.47;4.07;;;;;;;19.06;73.17;98466.88;5132227;27;20039;-54
2023/08/23 07:16:40;;;;;;;8.98;4.30;;;;;;;18.95;74.96;98467.50;5131150;27;20035;-52
2023/08/23 07:19:05;;;;;;;7.25;4.10;;;;;;;18.93;75.43;98461.66;5131928;27;20130;-55
2023/08/23 07:21:31;;;;;;;6.93;3.80;;;;;;;18.97;75.06;98460.72;5132180;27;20043;-56
2023/08/23 07:23:57;;;;;;;6.65;4.10;;;;;;;18.97;75.68;98466.09;5130700;27;20035;-58
2023/08/23 07:26:23;;;;;;;4.57;3.97;;;;;;;18.93;75.38;98465.13;5110168;27;20043;-58
2023/08/23 07:28:49;;;;;;;5.82;3.97;;;;;;;18.88;77.33;98461.78;5124059;27;20058;-56
2023/08/23 07:31:15;;;;;;;4.28;3.58;;;;;;;18.80;79.43;98466.06;5131434;27;20477;-58
2023/08/23 07:33:40;;;;;;;7.43;3.90;;;;;;;18.78;80.28;98471.72;5131037;27;20047;-57
2023/08/23 07:36:07;;;;;;;5.60;3.90;;;;;;;18.74;78.69;98470.78;5131438;27;20054;-56
2023/08/23 07:38:33;;;;;;;5.15;3.17;;;;;;;18.68;77.23;98469.34;5131597;28;20039;-58
2023/08/23 07:41:01;;;;;;;5.30;3.17;;;;;;;18.63;76.37;98471.38;5079864;28;20546;-56
2023/08/23 07:43:27;;;;;;;6.05;3.88;;;;;;;18.64;76.47;98472.94;5131692;27;20035;-57
2023/08/23 07:46:00;;;;;;;4.22;3.30;;;;;;;18.58;77.38;98478.44;5132089;27;20435;-57
2023/08/23 07:48:26;;;;;;;4.97;3.58;;;;;;;18.48;76.26;98481.44;5101838;28;20035;-57
2023/08/23 07:50:53;;;;;;;6.57;3.53;;;;;;;18.40;77.20;98482.19;5132043;28;20043;-57
2023/08/23 07:53:19;;;;;;;3.55;2.92;;;;;;;18.37;76.90;98480.13;5131553;27;20560;-57
2023/08/23 07:55:45;;;;;;;5.25;3.33;;;;;;;18.38;77.10;98481.69;5132168;27;20130;-58
2023/08/23 07:58:11;;;;;;;5.95;3.35;;;;;;;18.31;76.64;98478.69;5131670;27;20549;-56
2023/08/23 08:00:37;;;;;;;3.88;3.22;;;;;;;18.31;76.50;98476.78;5130227;28;20061;-57
2023/08/23 08:03:03;;;;;;;4.55;3.10;;;;;;;18.40;76.47;98479.50;5131023;27;20047;-58
2023/08/23 08:05:29;;;;;;;7.85;4.70;;;;;;;18.44;76.02;98474.28;5131298;28;20108;-58
2023/08/23 08:07:55;;;;;;;4.47;3.15;;;;;;;18.46;76.52;98480.16;5130857;28;20118;-58
2023/08/23 08:10:21;;;;;;;5.80;3.97;;;;;;;18.47;76.81;98476.34;5131232;27;20122;-57
2023/08/23 08:12:47;;;;;;;3.28;2.97;;;;;;;18.45;75.11;98476.69;5132168;27;20553;-53
2023/08/23 08:15:13;;;;;;;4.60;3.40;;;;;;;18.51;75.88;98480.81;5132909;27;20043;-58
2023/08/23 08:17:39;;;;;;;4.72;3.45;;;;;;;18.72;75.93;98472.16;5134605;27;20071;-57
2023/08/23 08:20:09;;;;;;;4.80;3.45;;;;;;;18.80;73.89;98474.91;5135472;27;20061;-57
2023/08/23 08:22:35;;;;;;;4.30;3.72;;;;;;;18.84;73.29;98467.00;5116641;27;20049;-56
2023/08/23 08:25:01;;;;;;;3.80;2.72;;;;;;;19.04;73.29;98473.66;5135149;27;20035;-55
2023/08/23 08:27:27;;;;;;;4.53;3.22;;;;;;;19.21;73.53;98467.50;5134350;27;20043;-58
2023/08/23 08:29:52;;;;;;;4.45;2.92;;;;;;;19.26;72.10;98468.13;5116558;27;20103;-55
2023/08/23 08:32:18;;;;;;;4.18;3.10;;;;;;;19.31;71.44;98469.88;5133795;27;20062;-55
2023/08/23 08:34:44;;;;;;;6.10;3.67;;;;;;;19.44;71.08;98465.41;5133279;27;20584;-55
2023/08/23 08:37:11;;;;;;;4.07;3.30;;;;;;;19.52;71.10;98464.63;5134956;27;20062;-54
2023/08/23 08:39:36;;;;;;;4.90;3.55;;;;;;;19.58;71.08;98459.88;5133523;27;20040;-55
2023/08/23 08:42:02;;;;;;;3.53;3.20;;;;;;;19.42;70.72;98463.06;5135568;27;20040;-56
2023/08/23 08:44:28;;;;;;;4.68;3.53;;;;;;;19.40;71.41;98454.53;5116779;27;20043;-57
2023/08/23 08:46:53;;;;;;;3.53;3.17;;;;;;;19.41;71.49;98452.63;5124868;27;20048;-58
2023/08/23 08:49:19;;;;;;;4.65;3.50;;;;;;;19.37;71.18;98454.38;5114504;28;20040;-56
2023/08/23 08:51:48;;;;;;;5.65;3.80;;;;;;;19.36;71.66;98453.59;5131576;27;20079;-54
2023/08/23 08:54:17;;;;;;;3.72;3.42;;;;;;;19.33;71.55;98458.81;5133834;27;20050;-55
2023/08/23 08:56:46;;;;;;;3.63;3.08;;;;;;;19.33;71.42;98458.81;5116328;27;20047;-57
2023/08/23 08:59:15;;;;;;;4.43;3.70;;;;;;;19.34;71.56;98452.31;5134931;27;20483;-55
2023/08/23 09:01:42;;;;;;;4.27;3.50;;;;;;;19.40;71.94;98453.75;5134458;27;20497;-53
2023/08/23 09:04:08;;;;;;;3.90;3.50;;;;;;;19.40;71.40;98449.16;5134656;27;20567;-56
2023/08/23 09:06:36;;;;;;;4.68;3.47;;;;;;;19.46;71.64;98455.16;5134512;27;20043;-56
2023/08/23 09:09:03;;;;;;;4.00;3.25;;;;;;;19.70;70.33;98450.06;5116926;27;20039;-57
2023/08/23 09:11:31;;;;;;;5.40;3.45;;;;;;;19.84;69.16;98457.94;5132977;27;20480;-56
2023/08/23 09:13:57;;;;;;;3.63;2.85;;;;;;;19.87;69.28;98451.13;5134605;27;20039;-58
2023/08/23 09:16:23;;;;;;;3.47;3.10;;;;;;;20.09;68.37;98455.47;5106157;28;20050;-57
2023/08/23 09:18:49;;;;;;;4.88;2.97;;;;;;;20.29;67.83;98459.34;5113775;28;20054;-56
2023/08/23 09:21:15;;;;;;;4.60;3.17;;;;;;;20.48;66.84;98461.66;5119374;27;20043;-56
2023/08/23 09:23:41;;;;;;;4.40;3.33;;;;;;;20.68;66.83;98458.25;5134503;27;20447;-58
2023/08/23 09:26:07;;;;;;;3.85;3.13;;;;;;;20.87;65.50;98455.88;5133842;27;20045;-57
2023/08/23 09:28:32;;;;;;;4.55;3.30;;;;;;;20.97;65.35;98454.72;5134530;27;20130;-56
2023/08/23 09:30:59;;;;;;;4.07;3.10;;;;;;;20.96;65.24;98452.34;5132747;27;20488;-56
2023/08/23 09:33:25;;;;;;;4.22;3.60;;;;;;;20.77;64.96;98455.50;5132841;27;20092;-56
2023/08/23 09:35:51;;;;;;;7.20;3.72;;;;;;;20.55;65.05;98460.03;5134247;27;20047;-57
2023/08/23 09:38:19;;;;;;;4.53;3.35;;;;;;;20.46;64.71;98461.97;5132376;27;20038;-57
2023/08/23 09:40:49;;;;;;;5.53;4.20;;;;;;;20.20;64.95;98470.16;5133005;27;20113;-54
2023/08/23 09:43:18;;;;;;;8.18;7.10;;;;;;;19.90;66.36;98474.69;5133712;27;20038;-57
2023/08/23 09:45:44;;;;;;;8.83;5.73;;;;;;;19.71;67.87;98467.78;5134131;27;20130;-57
2023/08/23 09:48:11;;;;;;;9.68;5.90;;;;;;;19.72;69.38;98461.28;5128860;27;20046;-57
2023/08/23 09:50:37;;;;;;;8.27;4.90;;;;;;;19.82;69.44;98460.16;5134027;27;20065;-55
2023/08/23 09:53:05;;;;;;;4.95;3.63;;;;;;;19.91;69.50;98457.44;5133256;27;20503;-57
2023/08/23 09:55:32;;;;;;;6.50;3.60;;;;;;;20.00;69.11;98460.09;5133710;27;20035;-59
2023/08/23 09:58:00;;;;;;;6.20;3.47;;;;;;;20.02;68.85;98464.06;5133127;27;20042;-56
2023/08/23 10:00:30;;;;;;;4.22;3.20;;;;;;;20.05;69.39;98459.94;5114980;27;20496;-56
2023/08/23 10:02:58;;;;;;;5.60;3.97;;;;;;;20.01;68.74;98465.19;5131919;27;20042;-58
2023/08/23 10:05:25;;;;;;;7.10;3.80;;;;;;;20.06;68.53;98467.69;5132128;27;20131;-56
2023/08/23 10:07:54;;;;;;;3.70;3.28;;;;;;;20.10;68.79;98462.47;5133338;27;20039;-56
2023/08/23 10:10:20;;;;;;;4.40;3.10;;;;;;;20.13;68.84;98464.50;5133236;27;20460;-57
2023/08/23 10:12:49;;;;;;;7.65;4.07;;;;;;;20.12;69.26;98466.41;5133181;27;20085;-59
2023/08/23 10:15:17;;;;;;;7.82;3.40;;;;;;;20.23;68.91;98468.72;5133278;27;20484;-56
2023/08/23 10:17:45;;;;;;;8.98;4.20;;;;;;;20.39;68.50;98464.38;5116000;27;20070;-58
2023/08/23 10:20:11;;;;;;;5.78;4.78;;;;;;;20.66;65.75;98468.53;5131935;27;20039;-56
2023/08/23 10:22:37;;;;;;;5.70;4.05;;;;;;;20.71;63.58;98462.19;5131865;27;20424;-57
2023/08/23 10:25:19;;;;;;;5.32;4.57;;;;;;;20.93;63.36;98464.56;5131649;27;20416;-58
2023/08/23 10:27:46;;;;;;;4.57;3.60;;;;;;;20.63;63.63;98463.81;5133414;27;20039;-57
2023/08/23 10:30:22;;;;;;;4.15;3.40;;;;;;;20.38;64.31;98477.06;5132903;27;20047;-57
2023/08/23 10:32:48;;;;;;;4.75;3.50;;;;;;;20.19;65.29;98471.28;5132587;27;20055;-60
2023/08/23 10:35:58;;;;;;;6.47;5.72;;;;;;;19.85;66.98;98482.94;5131141;27;20377;-58
2023/08/23 10:38:25;;;;;;;4.00;2.67;;;;;;;19.32;70.04;98481.41;4956496;27;21579;-58
2023/08/23 10:40:51;;;;;;;8.35;6.60;;;;;;;18.77;85.07;98490.84;4985334;27;20036;-58
2023/08/23 10:43:17;;;;;;;13.75;7.90;;;;;;;18.04;93.89;98490.41;5094262;28;20043;-58
2023/08/23 10:45:57;;;;;;;9.40;6.22;;;;;;;17.72;98.40;98486.88;5112064;28;20044;-60
2023/08/23 10:48:23;;;;;;;9.93;5.30;;;;;;;17.58;100.00;98480.81;5091313;28;20043;-59
2023/08/23 10:50:50;;;;;;;13.45;7.43;;;;;;;17.56;96.42;98474.94;5102545;27;20043;-60
2023/08/23 10:53:16;;;;;;;8.05;5.10;;;;;;;17.60;98.73;98473.25;5113980;27;20039;-58
2023/08/23 10:55:43;;;;;;;6.10;3.72;;;;;;;17.65;96.55;98470.47;5132479;27;20040;-57
2023/08/23 10:58:09;;;;;;;6.03;4.32;;;;;;;17.82;95.69;98469.78;5131130;27;20054;-59
2023/08/23 11:00:35;;;;;;;4.97;3.35;;;;;;;17.95;92.81;98465.44;5131067;27;20039;-58
2023/08/23 11:03:04;;;;;;;4.40;3.58;;;;;;;18.07;91.23;98471.81;5130766;27;20137;-59
2023/08/23 11:05:29;;;;;;;5.50;3.35;;;;;;;18.16;86.67;98471.84;5132744;27;20046;-58
2023/08/23 11:07:57;;;;;;;3.83;3.40;;;;;;;18.27;84.78;98462.44;5131059;27;20035;-60
2023/08/23 11:10:27;;;;;;;7.47;3.60;;;;;;;18.36;83.83;98463.25;5096282;27;20528;-59
2023/08/23 11:12:53;;;;;;;5.00;3.38;;;;;;;18.47;82.84;98471.00;5131978;27;20527;-57
2023/08/23 11:15:22;;;;;;;5.15;3.33;;;;;;;18.54;80.04;98460.59;5113900;27;20058;-57
2023/08/23 11:17:48;;;;;;;5.65;3.30;;;;;;;18.63;79.50;98460.63;5113969;27;20408;-59
2023/08/23 11:20:14;;;;;;;5.60;3.17;;;;;;;18.68;79.20;98455.09;5113841;28;20043;-59
2023/08/23 11:22:40;;;;;;;6.30;3.30;;;;;;;18.74;75.55;98462.72;5130840;27;20046;-60
2023/08/23 11:25:07;;;;;;;4.63;3.20;;;;;;;18.70;76.90;98460.94;5132475;27;20619;-58
2023/08/23 11:27:33;;;;;;;6.22;3.20;;;;;;;18.71;77.35;98457.97;5131868;27;20054;-59